Terminal Aerodrome Forecast
Issued by NWS

Home | Current Version | Previous Version | Text Only | Print | Product List | Glossary On
Versions: 1 2 3 4 5 6 7 8 9 10 11 12 13 14 15 16 17 18 19 20 21 22 23 24 25 26 27 28 29 30 31 32
000
FTUS46 KOTX 210535
TAFSFF
TAF
KSFF 210535Z 2106/2206 VRB02KT P6SM VCSH SCT080 BKN110 BKN200
     FM210900 VRB02KT P6SM SCT100 SCT200
     FM211800 17004KT P6SM SCT060 BKN120
     FM220000 04003KT P6SM VCSH SCT080 BKN110=

USA.gov is the U.S. government's official web portal to all federal, state and local government web resources and services.